Time;durP1;ratioP1;P1;durP2;ratioP2;P2;SDS_P1;SDS_P2;PMS_P1;PMS_P2;Temp;Humidity;BMP_temperature;BMP_pressure;BME280_temperature;BME280_humidity;BME280_pressure;Samples;Min_cycle;Max_cycle;Signal;HPM_P1;HPM_P2
2022/08/09 00:01:48;;;;;;;6.75;4.47;;;;;;;15.24;67.91;99348.48;1582727;90;25795;-57
2022/08/09 00:04:17;;;;;;;5.78;4.10;;;;;;;15.24;67.92;99347.09;1582900;90;28535;-58
2022/08/09 00:06:44;;;;;;;4.72;3.70;;;;;;;15.28;67.93;99344.48;1582602;90;25688;-58
2022/08/09 00:09:12;;;;;;;5.42;3.55;;;;;;;15.28;67.89;99343.91;1582910;90;25640;-58
2022/08/09 00:11:39;;;;;;;8.30;4.15;;;;;;;15.28;68.14;99343.91;1582744;90;26085;-57
2022/08/09 00:14:07;;;;;;;7.87;3.83;;;;;;;15.28;68.10;99348.06;1582702;90;25683;-58
2022/08/09 00:16:33;;;;;;;6.42;4.08;;;;;;;15.25;68.35;99347.33;1582713;90;27495;-58
2022/08/09 00:19:00;;;;;;;7.37;4.30;;;;;;;15.25;68.39;99344.57;1584484;89;25713;-58
2022/08/09 00:21:27;;;;;;;6.55;3.98;;;;;;;15.24;68.42;99348.48;1583204;90;25498;-58
2022/08/09 00:23:54;;;;;;;6.92;4.15;;;;;;;15.22;68.50;99345.23;1582647;90;25758;-57
2022/08/09 00:26:21;;;;;;;7.78;4.15;;;;;;;15.16;68.47;99347.36;1582797;90;25506;-57
2022/08/09 00:28:47;;;;;;;8.08;4.30;;;;;;;15.09;68.54;99347.05;1582647;90;27452;-57
2022/08/09 00:31:13;;;;;;;7.28;4.65;;;;;;;14.99;68.88;99351.51;1583368;90;25467;-57
2022/08/09 00:33:41;;;;;;;7.62;4.60;;;;;;;14.96;68.96;99352.16;1582762;90;25672;-57
2022/08/09 00:36:08;;;;;;;6.17;4.58;;;;;;;14.96;68.94;99351.60;1582591;90;25699;-57
2022/08/09 00:38:35;;;;;;;8.70;5.15;;;;;;;14.90;69.10;99351.52;1582918;90;25628;-57
2022/08/09 00:41:01;;;;;;;6.30;4.55;;;;;;;14.82;69.37;99354.53;1582876;90;27653;-57
2022/08/09 00:43:29;;;;;;;12.65;5.08;;;;;;;14.82;69.37;99354.53;1582638;90;25719;-58
2022/08/09 00:45:55;;;;;;;6.58;5.20;;;;;;;14.67;69.53;99346.15;1582911;90;25517;-57
2022/08/09 00:48:22;;;;;;;8.33;5.20;;;;;;;14.47;70.00;99351.73;1582662;90;25915;-57
2022/08/09 00:50:48;;;;;;;8.65;5.47;;;;;;;14.47;70.00;99351.73;1582713;90;25539;-57
2022/08/09 00:53:15;;;;;;;8.00;5.40;;;;;;;14.38;70.19;99355.86;1582667;90;27527;-57
2022/08/09 00:55:41;;;;;;;7.28;5.35;;;;;;;14.38;70.48;99353.10;1565158;90;27161;-57
2022/08/09 00:58:08;;;;;;;11.15;6.25;;;;;;;14.35;70.43;99358.70;1582950;87;25525;-58
2022/08/09 01:00:37;;;;;;;9.95;6.45;;;;;;;14.30;70.60;99356.91;1582906;90;25825;-57
2022/08/09 01:03:14;;;;;;;7.80;5.70;;;;;;;14.26;70.74;99359.25;1582856;90;25675;-58
2022/08/09 01:05:58;;;;;;;13.95;6.42;;;;;;;14.26;70.74;99359.25;1582927;90;27487;-57
2022/08/09 01:08:39;;;;;;;9.40;5.62;;;;;;;14.23;70.91;99355.20;1583112;90;25463;-57
2022/08/09 01:11:24;;;;;;;10.72;5.65;;;;;;;14.22;71.01;99364.58;1582655;90;26510;-57
2022/08/09 01:13:58;;;;;;;10.13;5.75;;;;;;;14.20;71.11;99365.48;1579389;90;26010;-57
2022/08/09 01:16:30;;;;;;;8.73;5.28;;;;;;;14.20;71.10;99360.53;1583069;90;25685;-57
2022/08/09 01:19:01;;;;;;;8.48;5.42;;;;;;;14.14;71.30;99362.05;1580704;89;28244;-57
2022/08/09 01:21:57;;;;;;;9.05;5.70;;;;;;;14.10;71.55;99358.31;1605756;89;25679;-58
2022/08/09 01:24:29;;;;;;;7.28;5.10;;;;;;;14.08;71.54;99361.16;1604885;89;25534;-57
2022/08/09 01:27:08;;;;;;;10.00;5.58;;;;;;;14.10;71.75;99357.52;1598899;89;25911;-57
2022/08/09 01:29:54;;;;;;;7.50;5.25;;;;;;;14.10;71.67;99359.70;1583151;90;25619;-57
2022/08/09 01:32:26;;;;;;;8.53;5.80;;;;;;;14.10;71.78;99356.14;1583182;90;27634;-57
2022/08/09 01:34:54;;;;;;;11.33;5.65;;;;;;;14.11;71.78;99361.34;1583121;90;26066;-57
2022/08/09 01:37:24;;;;;;;10.38;5.58;;;;;;;14.11;71.93;99357.77;1582973;90;25481;-57
2022/08/09 01:39:53;;;;;;;8.80;5.22;;;;;;;14.13;71.93;99362.40;1582863;90;25823;-58
2022/08/09 01:42:21;;;;;;;9.40;5.42;;;;;;;14.11;71.93;99361.89;1565529;90;25485;-57
2022/08/09 01:44:49;;;;;;;8.78;5.90;;;;;;;14.09;71.97;99362.22;1582932;90;27471;-57
2022/08/09 01:47:18;;;;;;;8.10;5.67;;;;;;;14.05;72.08;99360.66;1583036;90;25501;-58
2022/08/09 01:49:46;;;;;;;8.15;5.50;;;;;;;14.06;72.18;99364.23;1583010;90;25682;-57
2022/08/09 01:52:17;;;;;;;9.43;5.40;;;;;;;14.04;72.28;99359.04;1582785;90;25745;-57
2022/08/09 01:54:48;;;;;;;9.73;4.78;;;;;;;14.04;72.37;99363.73;1583080;90;25722;-57
2022/08/09 01:57:20;;;;;;;;;;;;;;;14.00;72.51;99364.95;1585244;90;29503;-57
2022/08/09 01:59:49;;;;;;;7.85;4.72;;;;;;;13.96;72.75;99357.06;1581669;88;25957;-57
2022/08/09 02:02:19;;;;;;;13.55;5.33;;;;;;;13.99;72.92;99363.30;1582631;90;25679;-57
2022/08/09 02:04:48;;;;;;;7.45;4.92;;;;;;;14.02;72.88;99357.74;1583173;90;25633;-58
2022/08/09 02:07:18;;;;;;;8.33;4.83;;;;;;;14.03;72.66;99364.31;1583140;90;25655;-57
2022/08/09 02:09:58;;;;;;;9.83;5.63;;;;;;;14.00;72.83;99361.37;1583294;90;28152;-57
2022/08/09 02:12:27;;;;;;;9.35;5.00;;;;;;;14.02;72.87;99364.63;1582823;90;25685;-57
2022/08/09 02:14:56;;;;;;;8.73;5.22;;;;;;;13.98;72.71;99360.87;1583035;90;25724;-58
2022/08/09 02:17:29;;;;;;;7.47;4.97;;;;;;;13.95;72.69;99361.51;1582951;90;25716;-57
2022/08/09 02:19:55;;;;;;;8.43;5.60;;;;;;;13.95;72.84;99365.09;1599074;89;25653;-58
2022/08/09 02:22:41;;;;;;;8.53;5.45;;;;;;;13.92;73.08;99358.28;1605791;88;27489;-58
2022/08/09 02:25:28;;;;;;;8.38;5.75;;;;;;;13.91;73.10;99357.22;1604879;89;25531;-58
2022/08/09 02:28:02;;;;;;;9.73;6.17;;;;;;;13.86;73.04;99356.80;1606173;89;25685;-58
2022/08/09 02:30:34;;;;;;;8.83;5.37;;;;;;;13.77;73.04;99360.91;1606129;89;25766;-57
2022/08/09 02:33:01;;;;;;;9.53;5.80;;;;;;;13.73;73.28;99362.64;1606028;89;25911;-57
2022/08/09 02:35:30;;;;;;;10.55;5.70;;;;;;;13.70;73.42;99367.41;1594359;89;27600;-57
2022/08/09 02:37:59;;;;;;;8.23;5.35;;;;;;;13.67;73.61;99361.16;1582858;90;25485;-57
2022/08/09 02:40:28;;;;;;;7.97;5.30;;;;;;;13.64;73.61;99364.55;1582893;90;25526;-57
2022/08/09 02:42:56;;;;;;;7.80;5.22;;;;;;;13.57;73.54;99367.77;1565613;90;25863;-58
2022/08/09 02:45:36;;;;;;;8.55;5.00;;;;;;;13.48;73.83;99369.64;1583127;90;25470;-57
2022/08/09 02:48:09;;;;;;;12.13;5.60;;;;;;;13.44;74.04;99368.06;1583228;90;28390;-57
2022/08/09 02:50:40;;;;;;;11.85;6.28;;;;;;;13.41;74.06;99365.39;1583066;90;25448;-57
2022/08/09 02:53:12;;;;;;;9.30;5.50;;;;;;;13.43;74.17;99367.27;1583411;90;25890;-57
2022/08/09 02:55:42;;;;;;;9.10;5.67;;;;;;;13.45;74.21;99371.64;1584431;90;25753;-57
2022/08/09 02:58:09;;;;;;;8.10;5.65;;;;;;;13.40;74.32;99373.41;1584038;90;25680;-57
2022/08/09 03:00:39;;;;;;;12.98;6.05;;;;;;;13.38;74.36;99369.33;1612747;88;27465;-57
2022/08/09 03:03:06;;;;;;;10.68;6.08;;;;;;;13.33;74.80;99370.30;1619443;88;25665;-57
2022/08/09 03:05:34;;;;;;;8.43;5.65;;;;;;;13.32;74.83;99365.90;1619589;88;25654;-57
2022/08/09 03:08:03;;;;;;;7.95;5.72;;;;;;;13.31;74.92;99368.41;1619666;88;26631;-57
2022/08/09 03:10:30;;;;;;;8.83;5.65;;;;;;;13.33;74.86;99374.42;1618055;88;25727;-58
2022/08/09 03:12:57;;;;;;;8.73;5.85;;;;;;;13.37;74.85;99380.92;1618285;88;26799;-57
2022/08/09 03:15:25;;;;;;;8.68;5.60;;;;;;;13.38;74.87;99386.66;1617934;88;25698;-57
2022/08/09 03:17:53;;;;;;;8.58;5.62;;;;;;;13.42;74.79;99378.60;1617973;88;25524;-57
2022/08/09 03:20:20;;;;;;;13.03;5.33;;;;;;;13.42;74.78;99384.11;1638928;87;25758;-58
2022/08/09 03:22:48;;;;;;;7.65;5.20;;;;;;;13.41;74.85;99381.91;1642595;87;25472;-58
2022/08/09 03:25:14;;;;;;;9.33;5.80;;;;;;;13.37;74.86;99380.09;1618111;87;28409;-58
2022/08/09 03:27:46;;;;;;;10.15;5.90;;;;;;;13.32;75.00;99375.53;1618947;88;25532;-57
2022/08/09 03:30:14;;;;;;;9.93;5.45;;;;;;;13.33;75.11;99376.36;1619497;88;25687;-57
2022/08/09 03:32:41;;;;;;;10.20;5.10;;;;;;;13.34;75.21;99375.22;1619613;88;25821;-57
2022/08/09 03:35:10;;;;;;;11.70;5.40;;;;;;;13.38;75.16;99377.58;1619599;87;25796;-57
2022/08/09 03:37:39;;;;;;;9.15;5.47;;;;;;;13.39;75.14;99380.61;1619351;88;26810;-57
2022/08/09 03:40:07;;;;;;;8.55;5.37;;;;;;;13.39;75.14;99375.89;1619554;88;25751;-57
2022/08/09 03:42:34;;;;;;;10.55;5.22;;;;;;;13.39;75.18;99375.09;1619436;88;25529;-57
2022/08/09 03:45:00;;;;;;;12.25;5.35;;;;;;;13.40;75.18;99375.34;1619479;88;25872;-57
2022/08/09 03:47:26;;;;;;;7.40;5.37;;;;;;;13.42;75.23;99374.47;1619341;88;25698;-57
2022/08/09 03:49:54;;;;;;;8.10;5.60;;;;;;;13.40;75.29;99369.83;1619529;88;28468;-57
2022/08/09 03:52:21;;;;;;;7.75;5.05;;;;;;;13.41;75.30;99364.02;1619429;88;25788;-58
2022/08/09 03:54:50;;;;;;;8.70;5.90;;;;;;;13.43;75.28;99365.08;1619827;88;25876;-57
2022/08/09 03:57:17;;;;;;;10.13;5.75;;;;;;;13.43;75.29;99368.66;1619326;88;25805;-57
2022/08/09 03:59:44;;;;;;;11.05;5.67;;;;;;;13.48;75.40;99362.75;1613221;88;25779;-57
2022/08/09 04:02:10;;;;;;;11.50;5.92;;;;;;;13.50;75.37;99361.33;1599426;89;27486;-57
2022/08/09 04:04:37;;;;;;;9.13;6.00;;;;;;;13.53;75.34;99368.95;1599453;89;26099;-57
2022/08/09 04:07:04;;;;;;;9.43;5.92;;;;;;;13.54;75.47;99361.52;1599731;89;25636;-57
2022/08/09 04:09:31;;;;;;;12.33;5.75;;;;;;;13.56;75.62;99370.29;1599452;89;25920;-58
2022/08/09 04:12:13;;;;;;;11.10;5.10;;;;;;;13.63;75.62;99365.69;1599430;89;25662;-58
2022/08/09 04:14:40;;;;;;;9.23;4.65;;;;;;;13.72;75.65;99376.19;1598292;89;27785;-58
2022/08/09 04:17:07;;;;;;;10.15;5.58;;;;;;;13.79;75.59;99372.98;1599274;89;25651;-58
2022/08/09 04:19:33;;;;;;;7.53;5.12;;;;;;;13.83;75.69;99376.72;1609904;88;25759;-58
2022/08/09 04:22:00;;;;;;;11.35;5.80;;;;;;;13.90;75.55;99376.23;1618877;88;25830;-58
2022/08/09 04:24:27;;;;;;;13.15;4.90;;;;;;;13.96;75.51;99381.86;1617957;88;25537;-58
2022/08/09 04:26:53;;;;;;;8.03;4.92;;;;;;;14.01;75.48;99386.41;1618421;88;27525;-58
2022/08/09 04:29:20;;;;;;;9.53;5.58;;;;;;;14.09;75.51;99380.69;1618323;88;25512;-58
2022/08/09 04:31:46;;;;;;;10.88;6.12;;;;;;;14.16;75.79;99392.88;1618385;88;25541;-58
2022/08/09 04:34:12;;;;;;;10.95;5.87;;;;;;;14.28;75.93;99390.87;1610964;88;26495;-58
2022/08/09 04:36:38;;;;;;;9.10;5.87;;;;;;;14.46;75.25;99388.72;1599270;89;25727;-59
2022/08/09 04:39:09;;;;;;;9.40;4.90;;;;;;;14.68;75.39;99396.03;1599471;89;27031;-58
2022/08/09 04:41:38;;;;;;;10.82;5.67;;;;;;;14.94;74.65;99395.27;1599273;89;25623;-58
2022/08/09 04:44:10;;;;;;;8.58;5.00;;;;;;;15.30;73.71;99394.67;1593617;88;25673;-58
2022/08/09 04:46:34;;;;;;;9.03;5.45;;;;;;;15.30;73.71;99394.67;1598503;88;25634;-58
2022/08/09 04:49:00;;;;;;;10.20;5.33;;;;;;;15.50;73.82;99396.50;1599985;88;25419;-58
2022/08/09 04:51:26;;;;;;;10.18;5.50;;;;;;;15.64;73.63;99395.73;1600795;88;28231;-58
2022/08/09 04:53:52;;;;;;;8.95;5.78;;;;;;;15.94;73.67;99394.95;1600507;89;25698;-58
2022/08/09 04:56:19;;;;;;;11.03;5.58;;;;;;;15.94;73.67;99394.95;1599761;88;25719;-58
2022/08/09 04:58:45;;;;;;;9.95;4.75;;;;;;;16.29;72.83;99414.73;1598116;88;25726;-58
2022/08/09 05:01:11;;;;;;;11.05;5.28;;;;;;;16.29;72.83;99414.73;1587741;88;25438;-58
2022/08/09 05:03:37;;;;;;;7.60;4.47;;;;;;;16.52;71.99;99413.87;1581904;90;28423;-58
2022/08/09 05:06:05;;;;;;;8.20;4.62;;;;;;;16.52;71.99;99413.87;1582969;90;26105;-57
2022/08/09 05:08:31;;;;;;;7.37;4.50;;;;;;;16.68;71.68;99407.19;1584362;89;25688;-57
2022/08/09 05:10:58;;;;;;;11.05;4.87;;;;;;;16.85;70.99;99411.53;1584149;90;25783;-58
2022/08/09 05:13:24;;;;;;;7.17;4.20;;;;;;;16.96;70.63;99411.94;1583992;90;25662;-58
2022/08/09 05:15:50;;;;;;;13.98;4.17;;;;;;;17.12;69.24;99414.91;1584107;90;27581;-58
2022/08/09 05:18:16;;;;;;;6.15;4.03;;;;;;;17.28;68.74;99408.19;1582184;89;25702;-58
2022/08/09 05:20:43;;;;;;;8.08;3.67;;;;;;;17.42;69.67;99414.22;1592203;88;25753;-58
2022/08/09 05:23:10;;;;;;;8.10;3.95;;;;;;;17.55;69.15;99413.69;1605788;89;25790;-58
2022/08/09 05:25:36;;;;;;;7.45;3.70;;;;;;;17.72;68.22;99406.90;1588623;89;25462;-58
2022/08/09 05:28:04;;;;;;;4.58;3.08;;;;;;;17.94;67.77;99409.84;1582747;90;27574;-58
2022/08/09 05:30:31;;;;;;;5.35;3.08;;;;;;;18.11;68.00;99412.18;1582912;90;25715;-58
2022/08/09 05:32:58;;;;;;;6.33;2.83;;;;;;;18.29;66.54;99412.19;1582655;90;25759;-60
2022/08/09 05:35:25;;;;;;;5.78;2.27;;;;;;;18.48;65.58;99408.58;1582695;90;25805;-58
2022/08/09 05:37:51;;;;;;;5.97;2.80;;;;;;;18.60;63.73;99418.28;1600293;89;25697;-59
2022/08/09 05:40:18;;;;;;;5.03;2.22;;;;;;;18.71;63.82;99413.03;1605688;89;29555;-59
2022/08/09 05:42:44;;;;;;;4.75;1.95;;;;;;;18.92;63.46;99414.84;1591096;89;26144;-58
2022/08/09 05:45:11;;;;;;;6.72;2.30;;;;;;;19.05;61.37;99421.97;1582473;90;26470;-58
2022/08/09 05:47:38;;;;;;;4.42;1.80;;;;;;;19.15;62.80;99419.31;1583155;90;25659;-59
2022/08/09 05:50:06;;;;;;;4.40;1.75;;;;;;;19.37;60.49;99415.72;1582984;90;25445;-58
2022/08/09 05:52:32;;;;;;;3.20;1.98;;;;;;;19.48;59.96;99411.85;1583161;90;28038;-58
2022/08/09 05:54:59;;;;;;;3.30;1.65;;;;;;;19.54;59.42;99415.98;1582687;90;25691;-58
2022/08/09 05:57:25;;;;;;;4.92;1.70;;;;;;;19.57;58.19;99417.23;1582787;90;25469;-58
2022/08/09 05:59:52;;;;;;;3.37;1.85;;;;;;;19.63;59.07;99418.59;1580322;88;26300;-58
2022/08/09 06:02:19;;;;;;;4.37;1.87;;;;;;;19.69;58.70;99424.72;1599412;89;25603;-58
2022/08/09 06:04:45;;;;;;;2.95;1.80;;;;;;;19.83;58.66;99427.05;1599457;89;27634;-58
2022/08/09 06:07:12;;;;;;;4.83;1.70;;;;;;;19.92;57.90;99422.11;1599212;89;25696;-58
2022/08/09 06:09:39;;;;;;;2.83;1.57;;;;;;;20.08;56.92;99421.34;1599238;89;25662;-59
2022/08/09 06:12:07;;;;;;;3.60;1.77;;;;;;;20.23;55.17;99428.06;1599239;89;25758;-58
2022/08/09 06:14:34;;;;;;;5.00;1.90;;;;;;;20.18;54.98;99422.18;1615715;88;25462;-59
2022/08/09 06:17:01;;;;;;;2.25;1.70;;;;;;;20.20;56.05;99430.77;1604366;88;27662;-58
2022/08/09 06:19:27;;;;;;;3.17;1.75;;;;;;;20.24;55.70;99425.52;1599436;89;25682;-60
2022/08/09 06:21:54;;;;;;;3.08;1.62;;;;;;;20.40;55.38;99431.63;1599471;89;25429;-58
2022/08/09 06:24:21;;;;;;;2.62;1.72;;;;;;;20.58;55.30;99428.46;1599481;89;25898;-58
2022/08/09 06:26:48;;;;;;;3.62;1.47;;;;;;;20.75;53.97;99431.43;1598927;89;25682;-58
2022/08/09 06:29:15;;;;;;;2.10;1.52;;;;;;;20.76;54.16;99434.42;1599473;89;27622;-58
2022/08/09 06:31:41;;;;;;;3.10;1.45;;;;;;;20.91;54.59;99428.03;1599043;89;25544;-59
2022/08/09 06:34:08;;;;;;;2.90;1.57;;;;;;;21.04;53.76;99430.68;1599175;89;25723;-59
2022/08/09 06:36:35;;;;;;;2.35;1.60;;;;;;;21.15;53.62;99424.72;1599698;89;26118;-58
2022/08/09 06:39:01;;;;;;;2.83;1.55;;;;;;;21.18;52.95;99432.92;1597997;88;25675;-59
2022/08/09 06:41:28;;;;;;;3.72;1.62;;;;;;;21.24;53.71;99430.67;1598259;88;28052;-60
2022/08/09 06:43:54;;;;;;;5.05;1.62;;;;;;;21.21;52.54;99433.59;1605072;87;25830;-59
2022/08/09 06:46:22;;;;;;;4.40;1.55;;;;;;;21.20;51.66;99427.80;1609673;86;25589;-58
2022/08/09 06:48:48;;;;;;;2.55;1.40;;;;;;;21.31;51.35;99434.41;1577680;91;25830;-58
2022/08/09 06:51:15;;;;;;;2.33;1.15;;;;;;;21.33;51.43;99431.84;1604878;89;25453;-59
2022/08/09 06:53:42;;;;;;;2.33;1.47;;;;;;;21.26;50.44;99443.06;1604862;89;27379;-58
2022/08/09 06:56:09;;;;;;;1.70;1.30;;;;;;;21.31;50.71;99435.80;1603750;88;25730;-59
2022/08/09 06:58:36;;;;;;;2.25;1.40;;;;;;;21.49;50.13;99435.91;1604742;89;25724;-58
2022/08/09 07:01:03;;;;;;;2.92;1.30;;;;;;;21.50;50.65;99436.94;1608900;88;26636;-58
2022/08/09 07:03:32;;;;;;;3.08;1.42;;;;;;;21.62;50.61;99435.17;1657715;85;25690;-59
2022/08/09 07:05:58;;;;;;;2.52;1.40;;;;;;;21.68;49.91;99437.87;1660522;85;26719;-58
2022/08/09 07:08:25;;;;;;;3.08;1.40;;;;;;;21.96;50.18;99436.78;1660770;86;25703;-59
2022/08/09 07:10:52;;;;;;;1.98;1.20;;;;;;;21.92;49.21;99438.71;1660715;86;25626;-59
2022/08/09 07:13:19;;;;;;;3.12;1.45;;;;;;;21.98;47.80;99437.80;1657855;85;25897;-58
2022/08/09 07:15:46;;;;;;;4.83;1.20;;;;;;;21.86;48.38;99442.41;1660804;86;25441;-58
2022/08/09 07:18:12;;;;;;;1.80;1.12;;;;;;;21.89;47.74;99445.03;1661005;86;27408;-58
2022/08/09 07:20:39;;;;;;;2.90;1.22;;;;;;;21.89;48.46;99447.24;1660476;86;25524;-59
2022/08/09 07:23:06;;;;;;;2.67;1.52;;;;;;;22.14;48.89;99447.45;1657941;85;25488;-59
2022/08/09 07:25:32;;;;;;;2.58;1.45;;;;;;;22.40;47.80;99446.66;1660655;86;25998;-59
2022/08/09 07:27:59;;;;;;;2.70;1.32;;;;;;;22.57;46.48;99447.33;1655002;85;25654;-58
2022/08/09 07:30:26;;;;;;;4.45;1.45;;;;;;;22.51;46.87;99453.02;1660799;86;27602;-59
2022/08/09 07:32:53;;;;;;;5.85;1.60;;;;;;;22.57;48.66;99450.12;1654799;85;25710;-59
2022/08/09 07:35:19;;;;;;;4.50;1.32;;;;;;;22.84;48.38;99452.09;1633984;87;25795;-59
2022/08/09 07:37:46;;;;;;;2.70;1.30;;;;;;;23.03;46.26;99451.95;1659430;86;25758;-59
2022/08/09 07:40:16;;;;;;;4.45;1.37;;;;;;;23.07;47.01;99452.01;1662814;86;25654;-58
2022/08/09 07:42:58;;;;;;;2.70;1.22;;;;;;;23.12;47.24;99455.06;1663643;85;33282;-59
2022/08/09 07:45:27;;;;;;;3.67;1.35;;;;;;;23.23;46.56;99458.78;1633889;87;25906;-59
2022/08/09 07:47:57;;;;;;;1.70;1.05;;;;;;;23.45;45.51;99454.88;1634128;87;25602;-59
2022/08/09 07:50:27;;;;;;;4.15;1.20;;;;;;;23.42;44.73;99459.25;1634150;87;25638;-59
2022/08/09 07:52:54;;;;;;;3.47;1.17;;;;;;;23.52;44.53;99452.15;1642473;85;25760;-59
2022/08/09 07:55:20;;;;;;;2.47;1.20;;;;;;;23.67;43.98;99456.52;1654908;85;27596;-59
2022/08/09 07:57:49;;;;;;;2.17;1.20;;;;;;;23.94;43.36;99463.36;1660918;86;25683;-58
2022/08/09 08:00:18;;;;;;;2.75;1.30;;;;;;;23.93;41.53;99456.98;1660568;86;25693;-58
2022/08/09 08:02:46;;;;;;;1.25;0.90;;;;;;;23.93;42.45;99457.56;1644157;86;26568;-59
2022/08/09 08:05:14;;;;;;;2.72;1.10;;;;;;;24.21;42.33;99466.63;1638219;85;25626;-59
2022/08/09 08:07:40;;;;;;;2.92;1.40;;;;;;;24.36;41.28;99454.94;1638311;86;27457;-59
2022/08/09 08:10:09;;;;;;;1.77;1.22;;;;;;;24.50;42.89;99461.25;1648263;87;25656;-59
2022/08/09 08:12:39;;;;;;;3.33;1.10;;;;;;;24.84;41.58;99461.04;1648365;87;25781;-59
2022/08/09 08:15:08;;;;;;;2.12;1.10;;;;;;;24.87;40.72;99461.66;1648327;87;26685;-59
2022/08/09 08:17:36;;;;;;;3.45;1.42;;;;;;;25.10;40.27;99466.20;1639233;86;25719;-60
2022/08/09 08:20:04;;;;;;;2.33;1.12;;;;;;;25.19;41.13;99463.06;1643918;87;27567;-59
2022/08/09 08:22:31;;;;;;;2.77;1.12;;;;;;;25.50;38.59;99456.53;1640955;86;25654;-59
2022/08/09 08:24:58;;;;;;;4.03;1.02;;;;;;;25.77;39.11;99455.42;1643889;87;25456;-59
2022/08/09 08:27:25;;;;;;;2.40;1.15;;;;;;;26.01;39.29;99455.84;1638379;86;25897;-59
2022/08/09 08:29:53;;;;;;;2.40;1.20;;;;;;;26.04;38.65;99469.08;1643892;87;25610;-59
2022/08/09 08:32:21;;;;;;;2.20;1.07;;;;;;;25.91;37.74;99462.45;1643973;87;27432;-59
2022/08/09 08:34:48;;;;;;;4.03;0.95;;;;;;;25.97;38.29;99462.88;1643642;87;25655;-59
2022/08/09 08:37:14;;;;;;;1.10;0.70;;;;;;;25.99;37.40;99460.45;1637860;86;25686;-59
2022/08/09 08:39:42;;;;;;;4.85;0.88;;;;;;;26.16;38.06;99471.50;1643855;87;25978;-59
2022/08/09 08:42:09;;;;;;;0.70;0.70;;;;;;;26.17;36.77;99460.45;1642921;86;25481;-59
2022/08/09 08:44:37;;;;;;;0.85;0.60;;;;;;;25.88;35.08;99463.87;1639130;86;27367;-59
2022/08/09 08:47:04;;;;;;;2.35;0.90;;;;;;;25.71;35.50;99457.83;1637978;86;25604;-59
2022/08/09 08:49:37;;;;;;;1.50;0.98;;;;;;;25.58;36.32;99468.58;1643867;87;25659;-59
2022/08/09 08:52:04;;;;;;;0.98;0.72;;;;;;;25.55;36.14;99467.97;1643555;86;25630;-60
2022/08/09 08:54:31;;;;;;;2.62;1.12;;;;;;;25.82;35.97;99460.66;1641112;86;25629;-59
2022/08/09 08:56:58;;;;;;;1.80;0.90;;;;;;;25.77;35.68;99468.87;1638039;86;27397;-59
2022/08/09 08:59:25;;;;;;;3.25;0.90;;;;;;;26.08;35.94;99462.08;1643696;87;25451;-58
2022/08/09 09:01:53;;;;;;;3.02;1.00;;;;;;;26.45;34.84;99461.49;1643722;86;25636;-58
2022/08/09 09:04:20;;;;;;;2.83;1.07;;;;;;;26.53;35.30;99463.06;1642698;86;25776;-58
2022/08/09 09:06:50;;;;;;;1.22;0.78;;;;;;;26.61;35.42;99461.86;1642530;87;25615;-58
2022/08/09 09:09:19;;;;;;;2.60;0.90;;;;;;;26.57;35.72;99463.89;1644156;87;27664;-58
2022/08/09 09:11:47;;;;;;;3.33;1.07;;;;;;;26.45;35.35;99457.27;1643960;87;25630;-58
2022/08/09 09:14:17;;;;;;;1.12;0.80;;;;;;;26.28;35.60;99460.45;1643185;86;25763;-59
2022/08/09 09:16:44;;;;;;;1.45;1.00;;;;;;;26.38;35.43;99453.27;1638088;86;25758;-58
2022/08/09 09:19:11;;;;;;;2.25;1.00;;;;;;;26.61;36.28;99454.02;1640989;86;25686;-58
2022/08/09 09:22:09;;;;;;;3.58;1.00;;;;;;;26.46;34.60;99450.44;1643944;87;27424;-58
2022/08/09 09:24:45;;;;;;;3.05;0.82;;;;;;;25.99;35.00;99459.67;1641814;86;26315;-58
2022/08/09 09:27:19;;;;;;;2.70;1.10;;;;;;;25.87;35.39;99458.84;1617431;88;25783;-58
2022/08/09 09:29:47;;;;;;;1.80;1.05;;;;;;;26.25;35.90;99455.64;1617575;88;25820;-58
2022/08/09 09:32:21;;;;;;;2.08;0.70;;;;;;;26.47;33.80;99453.44;1617522;88;25531;-59
2022/08/09 09:35:10;;;;;;;3.87;1.00;;;;;;;26.21;34.38;99456.84;1619113;86;27657;-58
2022/08/09 09:37:39;;;;;;;2.22;1.05;;;;;;;26.35;35.14;99459.69;1641166;86;25640;-58
2022/08/09 09:40:08;;;;;;;1.63;0.90;;;;;;;26.54;34.41;99455.64;1643797;87;25457;-58
2022/08/09 09:42:35;;;;;;;1.17;0.70;;;;;;;26.98;33.95;99451.92;1644406;87;25780;-59
2022/08/09 09:45:06;;;;;;;1.35;0.90;;;;;;;27.35;33.02;99449.19;1640181;86;25607;-59
2022/08/09 09:47:33;;;;;;;2.47;0.88;;;;;;;27.18;32.88;99448.06;1642527;87;27443;-58
2022/08/09 09:50:01;;;;;;;3.08;0.72;;;;;;;27.28;33.01;99449.20;1643881;87;25439;-59
2022/08/09 09:52:28;;;;;;;2.52;0.82;;;;;;;27.23;32.97;99455.27;1640860;86;25639;-59
2022/08/09 09:55:05;;;;;;;2.65;0.90;;;;;;;27.30;33.48;99452.42;1643763;87;25743;-58
2022/08/09 09:57:33;;;;;;;2.05;0.80;;;;;;;27.25;33.17;99445.20;1639080;86;25755;-58
2022/08/09 09:59:59;;;;;;;3.42;0.70;;;;;;;27.03;33.66;99445.91;1643906;87;27803;-58
2022/08/09 10:02:28;;;;;;;1.90;1.00;;;;;;;27.38;32.73;99444.75;1639497;86;25512;-58
2022/08/09 10:05:07;;;;;;;1.22;0.80;;;;;;;27.36;32.34;99449.97;1636801;86;25779;-58
2022/08/09 10:07:35;;;;;;;1.15;0.60;;;;;;;27.51;32.41;99445.06;1641181;86;25745;-59
2022/08/09 10:10:04;;;;;;;1.95;0.80;;;;;;;28.12;32.28;99439.63;1643991;87;25416;-58
2022/08/09 10:12:35;;;;;;;1.10;0.70;;;;;;;28.68;31.64;99433.70;1643950;87;27397;-58
2022/08/09 10:15:14;;;;;;;2.90;0.70;;;;;;;28.62;30.94;99439.00;1643736;86;25614;-58
2022/08/09 10:17:49;;;;;;;3.98;0.62;;;;;;;28.36;30.74;99430.00;1638418;86;25450;-58
2022/08/09 10:20:24;;;;;;;1.75;0.70;;;;;;;28.13;31.22;99444.66;1643809;86;25174;-58
2022/08/09 10:22:54;;;;;;;1.55;0.85;;;;;;;27.44;31.60;99433.25;1639814;86;25623;-58
2022/08/09 10:25:22;;;;;;;1.10;0.75;;;;;;;26.85;33.03;99430.48;1642740;87;28228;-58
2022/08/09 10:27:50;;;;;;;1.92;0.68;;;;;;;26.32;33.69;99433.80;1643815;87;25441;-58
2022/08/09 10:30:18;;;;;;;2.12;0.75;;;;;;;25.88;34.65;99440.78;1641422;86;25540;-58
2022/08/09 10:32:45;;;;;;;1.40;0.80;;;;;;;26.25;34.07;99433.78;1638165;86;26018;-58
2022/08/09 10:35:12;;;;;;;2.02;0.72;;;;;;;26.78;33.86;99430.70;1640912;86;25639;-58
2022/08/09 10:37:39;;;;;;;2.77;0.70;;;;;;;27.10;32.31;99415.53;1643751;87;27410;-58
2022/08/09 10:40:08;;;;;;;1.95;0.60;;;;;;;26.91;32.62;99421.20;1644079;87;25612;-58
2022/08/09 10:42:34;;;;;;;2.65;0.70;;;;;;;26.73;33.47;99427.48;1643992;87;25702;-58
2022/08/09 10:45:09;;;;;;;0.95;0.70;;;;;;;26.88;32.20;99427.64;1640893;86;26275;-58
2022/08/09 10:47:47;;;;;;;2.47;0.82;;;;;;;27.21;32.00;99424.73;1643936;87;25684;-58
2022/08/09 10:54:04;;;;;;;1.17;0.80;;;;;;;27.15;31.91;99422.96;1643828;87;25640;-58
2022/08/09 10:56:36;;;;;;;1.15;0.53;;;;;;;26.63;33.57;99427.14;1637965;86;25465;-58
2022/08/09 10:59:28;;;;;;;1.67;0.90;;;;;;;26.25;33.94;99422.55;1643955;87;26671;-58
2022/08/09 11:01:55;;;;;;;2.33;0.80;;;;;;;26.18;33.76;99417.73;1647266;86;25513;-59
2022/08/09 11:04:25;;;;;;;1.60;0.80;;;;;;;26.03;33.75;99424.77;1661062;86;27873;-59
2022/08/09 11:07:01;;;;;;;;;;;;;;;25.83;33.78;99417.34;1658811;85;26151;-59
2022/08/09 11:09:48;;;;;;;1.45;0.78;;;;;;;25.74;34.16;99416.33;1660776;86;25623;-59
2022/08/09 11:12:24;;;;;;;1.87;0.65;;;;;;;26.19;35.03;99415.92;1660952;86;25712;-58
2022/08/09 11:15:00;;;;;;;2.15;0.60;;;;;;;26.85;32.22;99415.02;1652112;85;25496;-58
2022/08/09 11:17:34;;;;;;;2.45;0.60;;;;;;;27.41;32.32;99408.75;1660657;86;28708;-58
2022/08/09 11:20:10;;;;;;;2.20;0.70;;;;;;;27.89;32.32;99414.27;1660838;86;25441;-58
2022/08/09 11:22:49;;;;;;;1.00;0.60;;;;;;;28.02;31.63;99420.20;1660758;86;25644;-58
2022/08/09 11:25:21;;;;;;;1.47;0.60;;;;;;;27.96;30.70;99421.05;1655191;85;25786;-58
2022/08/09 11:27:55;;;;;;;2.30;0.70;;;;;;;27.85;30.51;99416.31;1660853;86;25642;-58
2022/08/09 11:30:29;;;;;;;1.98;0.70;;;;;;;27.78;31.27;99412.94;1660843;86;26864;-58
2022/08/09 11:33:21;;;;;;;1.35;0.47;;;;;;;27.84;31.49;99410.50;1660555;86;25810;-58
2022/08/09 11:35:57;;;;;;;1.70;0.80;;;;;;;28.29;30.27;99408.28;1655579;85;25694;-58
2022/08/09 11:38:31;;;;;;;2.85;0.65;;;;;;;28.68;29.35;99400.67;1633907;87;26377;-58
2022/08/09 11:41:15;;;;;;;2.65;0.60;;;;;;;28.84;30.06;99406.94;1633848;87;25597;-59
2022/08/09 11:43:51;;;;;;;1.87;0.70;;;;;;;28.53;29.78;99398.59;1633968;87;28181;-59
2022/08/09 11:46:18;;;;;;;3.35;0.60;;;;;;;28.56;29.92;99396.34;1633747;87;25588;-59